Time,TemperatureF,DewpointF,PressureIn,WindDirection,WindDirectionDegrees,WindSpeedMPH,WindSpeedGustMPH,Humidity,HourlyPrecipIn,Conditions,Clouds,dailyrainin,SoftwareType,DateUTC
2013-07-24 00:00:00,58.7,47.0,29.94,North,359,5.0,11.0,65,0.00,,---,0.23,VWS V14.01,2013-07-24 04:00:00,
2013-07-24 00:01:00,58.7,47.4,29.95,NNW,343,6.0,7.0,66,0.00,,---,0.00,VWS V14.01,2013-07-24 04:01:00,
2013-07-24 00:06:00,58.7,47.4,29.95,North,354,6.0,10.0,66,0.00,,---,0.00,VWS V14.01,2013-07-24 04:06:00,
2013-07-24 00:11:00,58.7,47.8,29.95,NNW,332,6.0,11.0,67,0.00,,---,0.00,VWS V14.01,2013-07-24 04:11:00,
2013-07-24 00:16:00,58.7,47.8,29.95,NNW,343,10.0,12.0,67,0.00,,---,0.00,VWS V14.01,2013-07-24 04:16:00,
2013-07-24 00:21:00,58.9,48.0,29.95,North,350,6.0,12.0,67,0.00,,---,0.00,VWS V14.01,2013-07-24 04:21:00,
2013-07-24 00:26:00,58.9,48.0,29.95,North,0,7.0,12.0,67,0.00,,---,0.00,VWS V14.01,2013-07-24 04:26:00,
2013-07-24 00:30:00,58.7,46.6,29.94,NNW,328,5.0,11.0,64,0.00,,---,0.23,VWS V14.01,2013-07-24 04:30:00,
2013-07-24 00:31:00,58.7,48.2,29.96,NW,319,8.0,9.0,68,0.00,,---,0.00,VWS V14.01,2013-07-24 04:31:00,
2013-07-24 00:36:00,58.6,48.1,29.96,North,353,6.0,10.0,68,0.00,,---,0.00,VWS V14.01,2013-07-24 04:36:00,
2013-07-24 00:41:00,58.4,48.3,29.96,NNW,343,5.0,10.0,69,0.00,,---,0.00,VWS V14.01,2013-07-24 04:41:00,
2013-07-24 00:46:00,58.3,48.6,29.96,North,352,6.0,10.0,70,0.00,,---,0.00,VWS V14.01,2013-07-24 04:46:00,
2013-07-24 00:51:00,58.1,48.4,29.96,North,0,5.0,10.0,70,0.00,,---,0.00,VWS V14.01,2013-07-24 04:51:00,
2013-07-24 00:56:00,58.0,48.3,29.96,NNW,347,6.0,10.0,70,0.00,,---,0.00,VWS V14.01,2013-07-24 04:56:00,
2013-07-24 01:00:00,58.7,47.4,29.95,North,350,7.0,13.0,66,0.00,,---,0.23,VWS V14.01,2013-07-24 05:00:00,
2013-07-24 01:01:00,57.6,47.9,29.96,North,0,5.0,6.0,70,0.00,,---,0.00,VWS V14.01,2013-07-24 05:01:00,
2013-07-24 01:06:00,57.3,48.7,29.96,North,352,3.0,6.0,73,0.00,,---,0.00,VWS V14.01,2013-07-24 05:06:00,
2013-07-24 01:11:00,57.2,48.6,29.96,North,353,2.0,6.0,73,0.00,,---,0.00,VWS V14.01,2013-07-24 05:11:00,
2013-07-24 01:16:00,57.0,48.8,29.97,North,0,4.0,7.0,74,0.00,,---,0.00,VWS V14.01,2013-07-24 05:16:00,
2013-07-24 01:21:00,56.7,48.5,29.97,North,354,2.0,7.0,74,0.00,,---,0.00,VWS V14.01,2013-07-24 05:21:00,
2013-07-24 01:26:00,56.6,48.8,29.97,NNW,346,3.0,7.0,75,0.00,,---,0.00,VWS V14.01,2013-07-24 05:26:00,
2013-07-24 01:30:00,58.7,48.2,29.96,North,0,7.0,12.0,68,0.00,,---,0.00,VWS V14.01,2013-07-24 05:30:00,
2013-07-24 01:31:00,56.5,48.7,29.97,North,0,3.0,4.0,75,0.00,,---,0.00,VWS V14.01,2013-07-24 05:31:00,
2013-07-24 01:37:00,56.3,48.1,29.97,North,359,2.0,7.0,74,0.00,,---,0.00,VWS V14.01,2013-07-24 05:37:00,
2013-07-24 01:42:00,56.2,48.0,29.97,North,354,3.0,7.0,74,0.00,,---,0.00,VWS V14.01,2013-07-24 05:42:00,
2013-07-24 01:46:00,55.9,48.1,29.97,North,354,2.0,7.0,75,0.00,,---,0.00,VWS V14.01,2013-07-24 05:46:00,
2013-07-24 01:51:00,55.7,47.9,29.97,North,10,2.0,7.0,75,0.00,,---,0.00,VWS V14.01,2013-07-24 05:51:00,
2013-07-24 01:56:00,55.7,47.9,29.97,North,359,1.0,7.0,75,0.00,,---,0.00,VWS V14.01,2013-07-24 05:56:00,
2013-07-24 02:00:00,57.6,47.9,29.96,North,354,4.0,10.0,70,0.00,,---,0.00,VWS V14.01,2013-07-24 06:00:00,
2013-07-24 02:01:00,55.7,47.5,29.98,North,0,2.0,2.0,74,0.00,,---,0.00,VWS V14.01,2013-07-24 06:01:00,
2013-07-24 02:06:00,55.6,47.8,29.98,North,0,0.0,5.0,75,0.00,,---,0.00,VWS V14.01,2013-07-24 06:06:00,
2013-07-24 02:11:00,55.1,47.7,29.98,North,0,3.0,5.0,76,0.00,,---,0.00,VWS V14.01,2013-07-24 06:11:00,
2013-07-24 02:16:00,54.8,47.7,29.98,North,0,2.0,5.0,77,0.00,,---,0.00,VWS V14.01,2013-07-24 06:16:00,
2013-07-24 02:22:00,54.4,47.7,29.98,North,354,2.0,6.0,78,0.00,,---,0.00,VWS V14.01,2013-07-24 06:22:00,
2013-07-24 02:27:00,54.5,47.5,29.98,North,353,2.0,7.0,77,0.00,,---,0.00,VWS V14.01,2013-07-24 06:27:00,
2013-07-24 02:30:00,56.5,48.7,29.97,North,0,4.0,7.0,75,0.00,,---,0.00,VWS V14.01,2013-07-24 06:30:00,
2013-07-24 02:32:00,54.4,47.3,29.98,North,0,3.0,3.0,77,0.00,,---,0.00,VWS V14.01,2013-07-24 06:32:00,
2013-07-24 02:37:00,54.1,47.4,29.98,North,0,2.0,3.0,78,0.00,,---,0.00,VWS V14.01,2013-07-24 06:37:00,
2013-07-24 02:42:00,53.9,47.5,29.98,North,0,0.0,3.0,79,0.00,,---,0.00,VWS V14.01,2013-07-24 06:42:00,
2013-07-24 02:47:00,53.6,47.3,29.98,North,0,3.0,6.0,79,0.00,,---,0.00,VWS V14.01,2013-07-24 06:47:00,
2013-07-24 02:52:00,53.8,47.1,29.98,North,1,2.0,6.0,78,0.00,,---,0.00,VWS V14.01,2013-07-24 06:52:00,
2013-07-24 02:57:00,53.6,47.3,29.98,North,3,1.0,6.0,79,0.00,,---,0.00,VWS V14.01,2013-07-24 06:57:00,
2013-07-24 03:00:00,55.7,47.9,29.98,North,0,1.0,7.0,75,0.00,,---,0.00,VWS V14.01,2013-07-24 07:00:00,
2013-07-24 03:02:00,53.5,47.2,29.99,North,3,0.0,0.0,79,0.00,,---,0.00,VWS V14.01,2013-07-24 07:02:00,
2013-07-24 03:07:00,53.3,47.0,29.99,North,3,0.0,1.0,79,0.00,,---,0.00,VWS V14.01,2013-07-24 07:07:00,
2013-07-24 03:12:00,53.1,46.8,29.99,North,3,0.0,1.0,79,0.00,,---,0.00,VWS V14.01,2013-07-24 07:12:00,
2013-07-24 03:17:00,52.8,47.5,29.99,North,3,0.0,1.0,82,0.00,,---,0.00,VWS V14.01,2013-07-24 07:17:00,
2013-07-24 03:22:00,52.5,47.5,29.99,North,3,0.0,1.0,83,0.00,,---,0.00,VWS V14.01,2013-07-24 07:22:00,
2013-07-24 03:27:00,52.2,47.5,29.99,North,3,0.0,1.0,84,0.00,,---,0.00,VWS V14.01,2013-07-24 07:27:00,
2013-07-24 03:30:00,54.5,47.5,29.98,North,353,0.0,7.0,77,0.00,,---,0.00,VWS V14.01,2013-07-24 07:30:00,
2013-07-24 03:32:00,51.9,47.5,30.00,North,3,0.0,0.0,85,0.00,,---,0.00,VWS V14.01,2013-07-24 07:32:00,
2013-07-24 03:37:00,51.6,47.6,30.00,North,3,0.0,0.0,86,0.00,,---,0.00,VWS V14.01,2013-07-24 07:37:00,
2013-07-24 03:42:00,51.3,47.3,30.00,North,3,0.0,0.0,86,0.00,,---,0.00,VWS V14.01,2013-07-24 07:42:00,
2013-07-24 03:47:00,51.1,47.1,30.00,North,3,0.0,0.0,86,0.00,,---,0.00,VWS V14.01,2013-07-24 07:47:00,
2013-07-24 03:52:00,50.8,46.8,30.00,North,3,0.0,0.0,86,0.00,,---,0.00,VWS V14.01,2013-07-24 07:52:00,
2013-07-24 03:57:00,50.7,47.0,30.00,North,3,0.0,0.0,87,0.00,,---,0.00,VWS V14.01,2013-07-24 07:57:00,
2013-07-24 04:00:00,53.5,47.2,29.99,North,3,0.0,6.0,79,0.00,,---,0.00,VWS V14.01,2013-07-24 08:00:00,
2013-07-24 04:02:00,50.5,47.1,30.00,North,3,0.0,0.0,88,0.00,,---,0.00,VWS V14.01,2013-07-24 08:02:00,
2013-07-24 04:07:00,50.4,47.0,30.00,North,3,0.0,0.0,88,0.00,,---,0.00,VWS V14.01,2013-07-24 08:07:00,
2013-07-24 04:12:00,50.2,46.8,30.00,North,3,0.0,0.0,88,0.00,,---,0.00,VWS V14.01,2013-07-24 08:12:00,
2013-07-24 04:17:00,50.1,47.0,30.00,North,7,0.0,0.0,89,0.00,,---,0.00,VWS V14.01,2013-07-24 08:17:00,
2013-07-24 04:22:00,49.8,46.7,30.00,North,7,0.0,0.0,89,0.00,,---,0.00,VWS V14.01,2013-07-24 08:22:00,
2013-07-24 04:27:00,49.4,46.6,30.00,North,11,0.0,2.0,90,0.00,,---,0.00,VWS V14.01,2013-07-24 08:27:00,
2013-07-24 04:30:00,52.0,47.3,30.00,North,3,0.0,1.0,84,0.00,,---,0.00,VWS V14.01,2013-07-24 08:30:00,
2013-07-24 04:32:00,49.2,46.7,30.01,North,11,0.0,0.0,91,0.00,,---,0.00,VWS V14.01,2013-07-24 08:32:00,
2013-07-24 04:37:00,48.8,46.3,30.01,North,11,2.0,2.0,91,0.00,,---,0.00,VWS V14.01,2013-07-24 08:37:00,
2013-07-24 04:42:00,48.3,45.8,30.01,North,11,1.0,2.0,91,0.00,,---,0.00,VWS V14.01,2013-07-24 08:42:00,
2013-07-24 04:47:00,48.3,46.1,30.01,NNE,32,0.0,2.0,92,0.00,,---,0.00,VWS V14.01,2013-07-24 08:47:00,
2013-07-24 04:53:00,48.3,46.1,30.01,NNE,32,0.0,2.0,92,0.00,,---,0.00,VWS V14.01,2013-07-24 08:53:00,
2013-07-24 04:58:00,48.3,46.1,30.01,NNE,32,0.0,2.0,92,0.00,,---,0.00,VWS V14.01,2013-07-24 08:58:00,
2013-07-24 05:00:00,50.5,46.8,30.00,North,3,0.0,0.0,87,0.00,,---,0.00,VWS V14.01,2013-07-24 09:00:00,
2013-07-24 05:03:00,48.3,46.4,30.01,NNE,32,0.0,0.0,93,0.00,,---,0.00,VWS V14.01,2013-07-24 09:03:00,
2013-07-24 05:08:00,48.3,46.4,30.01,NNE,32,0.0,0.0,93,0.00,,---,0.00,VWS V14.01,2013-07-24 09:08:00,
2013-07-24 05:13:00,47.7,45.8,30.01,NNE,32,0.0,0.0,93,0.00,,---,0.00,VWS V14.01,2013-07-24 09:13:00,
2013-07-24 05:18:00,47.7,46.1,30.01,NNE,32,0.0,0.0,94,0.00,,---,0.00,VWS V14.01,2013-07-24 09:18:00,
2013-07-24 05:23:00,47.7,46.1,30.01,NNE,32,0.0,0.0,94,0.00,,---,0.00,VWS V14.01,2013-07-24 09:23:00,
2013-07-24 05:28:00,47.7,46.3,30.01,NNE,32,0.0,0.0,95,0.00,,---,0.00,VWS V14.01,2013-07-24 09:28:00,
2013-07-24 05:30:00,49.2,46.4,30.01,North,11,0.0,2.0,90,0.00,,---,0.00,VWS V14.01,2013-07-24 09:30:00,
2013-07-24 05:33:00,47.7,46.3,30.02,NNE,32,0.0,0.0,95,0.00,,---,0.00,VWS V14.01,2013-07-24 09:33:00,
2013-07-24 05:38:00,47.1,45.7,30.02,NNE,32,0.0,0.0,95,0.00,,---,0.00,VWS V14.01,2013-07-24 09:38:00,
2013-07-24 05:43:00,47.1,45.7,30.02,NNE,32,0.0,2.0,95,0.00,,---,0.00,VWS V14.01,2013-07-24 09:43:00,
2013-07-24 05:48:00,47.1,45.7,30.02,NNE,32,0.0,2.0,95,0.00,,---,0.00,VWS V14.01,2013-07-24 09:48:00,
2013-07-24 05:53:00,47.0,45.7,30.02,NNE,32,0.0,2.0,95,0.00,,---,0.00,VWS V14.01,2013-07-24 09:53:00,
2013-07-24 05:58:00,46.7,45.3,30.02,NNE,32,0.0,2.0,95,0.00,,---,0.00,VWS V14.01,2013-07-24 09:58:00,
2013-07-24 06:00:00,48.3,46.1,30.01,NNE,32,0.0,2.0,92,0.00,,---,0.00,VWS V14.01,2013-07-24 10:00:00,
2013-07-24 06:03:00,46.7,45.3,30.02,NNE,32,0.0,0.0,95,0.00,,---,0.00,VWS V14.01,2013-07-24 10:03:00,
2013-07-24 06:08:00,46.7,45.3,30.02,NNE,32,0.0,0.0,95,0.00,,---,0.00,VWS V14.01,2013-07-24 10:08:00,
2013-07-24 06:13:00,46.1,44.8,30.02,NNE,32,0.0,0.0,95,0.00,,---,0.00,VWS V14.01,2013-07-24 10:13:00,
2013-07-24 06:18:00,46.0,44.7,30.02,NNE,32,0.0,1.0,95,0.00,,---,0.00,VWS V14.01,2013-07-24 10:18:00,
2013-07-24 06:23:00,46.0,44.7,30.02,NE,44,0.0,2.0,95,0.00,,---,0.00,VWS V14.01,2013-07-24 10:23:00,
2013-07-24 06:28:00,46.0,44.7,30.02,NE,49,1.0,3.0,95,0.00,,---,0.00,VWS V14.01,2013-07-24 10:28:00,
2013-07-24 06:30:00,47.7,46.3,30.02,NNE,32,0.0,0.0,95,0.00,,---,0.00,VWS V14.01,2013-07-24 10:30:00,
2013-07-24 06:33:00,46.0,44.7,30.03,ENE,59,2.0,3.0,95,0.00,,---,0.00,VWS V14.01,2013-07-24 10:33:00,
2013-07-24 06:38:00,45.7,44.3,30.03,ENE,59,0.0,3.0,95,0.00,,---,0.00,VWS V14.01,2013-07-24 10:38:00,
2013-07-24 06:43:00,45.5,44.2,30.03,ENE,59,0.0,3.0,95,0.00,,---,0.00,VWS V14.01,2013-07-24 10:43:00,
2013-07-24 06:48:00,45.5,44.2,30.03,ENE,59,0.0,3.0,95,0.00,,---,0.00,VWS V14.01,2013-07-24 10:48:00,
2013-07-24 06:53:00,45.5,44.2,30.03,ENE,59,0.0,3.0,95,0.00,,---,0.00,VWS V14.01,2013-07-24 10:53:00,
2013-07-24 06:58:00,45.7,44.3,30.03,ENE,59,0.0,3.0,95,0.00,,---,0.00,VWS V14.01,2013-07-24 10:58:00,
2013-07-24 07:00:00,46.7,45.3,30.02,NNE,32,0.0,2.0,95,0.00,,---,0.00,VWS V14.01,2013-07-24 11:00:00,
2013-07-24 07:03:00,46.0,44.7,30.04,ENE,59,2.0,2.0,95,0.00,,---,0.00,VWS V14.01,2013-07-24 11:03:00,
2013-07-24 07:08:00,46.5,45.2,30.04,ESE,106,2.0,5.0,95,0.00,,---,0.00,VWS V14.01,2013-07-24 11:08:00,
2013-07-24 07:13:00,46.7,45.3,30.04,ESE,106,1.0,5.0,95,0.00,,---,0.00,VWS V14.01,2013-07-24 11:13:00,
2013-07-24 07:18:00,47.1,45.7,30.04,ESE,106,0.0,5.0,95,0.00,,---,0.00,VWS V14.01,2013-07-24 11:18:00,
2013-07-24 07:23:00,47.6,46.2,30.04,West,271,0.0,5.0,95,0.00,,---,0.00,VWS V14.01,2013-07-24 11:23:00,
2013-07-24 07:28:00,47.9,46.5,30.04,West,271,0.0,5.0,95,0.00,,---,0.00,VWS V14.01,2013-07-24 11:28:00,
2013-07-24 07:30:00,46.0,44.7,30.03,NE,56,0.0,3.0,95,0.00,,---,0.00,VWS V14.01,2013-07-24 11:30:00,
2013-07-24 07:33:00,48.5,47.1,30.05,NE,48,2.0,2.0,95,0.00,,---,0.00,VWS V14.01,2013-07-24 11:33:00,
2013-07-24 07:38:00,48.9,47.5,30.05,East,99,2.0,3.0,95,0.00,,---,0.00,VWS V14.01,2013-07-24 11:38:00,
2013-07-24 07:43:00,49.5,48.1,30.05,WNW,295,0.0,3.0,95,0.00,,---,0.00,VWS V14.01,2013-07-24 11:43:00,
2013-07-24 07:48:00,49.9,48.5,30.05,SSW,213,0.0,3.0,95,0.00,,---,0.00,VWS V14.01,2013-07-24 11:48:00,
2013-07-24 07:53:00,50.2,48.3,30.05,East,85,0.0,3.0,93,0.00,,---,0.00,VWS V14.01,2013-07-24 11:53:00,
2013-07-24 07:58:00,50.4,47.9,30.05,ESE,107,2.0,3.0,91,0.00,,---,0.00,VWS V14.01,2013-07-24 11:58:00,
2013-07-24 08:00:00,45.7,44.3,30.04,ENE,59,0.0,3.0,95,0.00,,---,0.00,VWS V14.01,2013-07-24 12:00:00,
2013-07-24 08:03:00,50.7,47.9,30.06,ESE,103,1.0,3.0,90,0.00,,---,0.00,VWS V14.01,2013-07-24 12:03:00,
2013-07-24 08:08:00,51.3,48.2,30.06,East,99,1.0,3.0,89,0.00,,---,0.00,VWS V14.01,2013-07-24 12:08:00,
2013-07-24 08:13:00,51.9,48.8,30.06,WSW,258,1.0,3.0,89,0.00,,---,0.00,VWS V14.01,2013-07-24 12:13:00,
2013-07-24 08:18:00,52.6,49.2,30.06,East,93,0.0,3.0,88,0.00,,---,0.00,VWS V14.01,2013-07-24 12:18:00,
2013-07-24 08:23:00,53.5,49.7,30.06,East,93,0.0,3.0,87,0.00,,---,0.00,VWS V14.01,2013-07-24 12:23:00,
2013-07-24 08:29:00,54.1,50.3,30.06,East,100,1.0,3.0,87,0.00,,---,0.00,VWS V14.01,2013-07-24 12:29:00,
2013-07-24 08:30:00,48.0,46.6,30.05,WNW,298,0.0,5.0,95,0.00,,---,0.00,VWS V14.01,2013-07-24 12:30:00,
2013-07-24 08:34:00,54.1,50.3,30.06,ESE,110,2.0,5.0,87,0.00,,---,0.00,VWS V14.01,2013-07-24 12:34:00,
2013-07-24 08:38:00,54.1,50.3,30.06,ESE,110,2.0,5.0,87,0.00,,---,0.00,VWS V14.01,2013-07-24 12:38:00,
2013-07-24 08:44:00,54.1,50.3,30.06,SE,124,0.0,5.0,87,0.00,,---,0.00,VWS V14.01,2013-07-24 12:44:00,
2013-07-24 08:49:00,54.1,50.3,30.06,SE,124,0.0,5.0,87,0.00,,---,0.00,VWS V14.01,2013-07-24 12:49:00,
2013-07-24 08:54:00,54.1,50.3,30.06,SE,124,0.0,5.0,87,0.00,,---,0.00,VWS V14.01,2013-07-24 12:54:00,
2013-07-24 08:59:00,54.1,50.3,30.06,SE,124,0.0,5.0,87,0.00,,---,0.00,VWS V14.01,2013-07-24 12:59:00,
2013-07-24 09:00:00,50.4,47.6,30.06,SSE,160,1.0,3.0,90,0.00,,---,0.00,VWS V14.01,2013-07-24 13:00:00,
2013-07-24 09:04:00,54.1,50.3,30.07,SE,124,0.0,0.0,87,0.00,,---,0.00,VWS V14.01,2013-07-24 13:04:00,
2013-07-24 09:09:00,54.1,50.3,30.07,SE,124,0.0,0.0,87,0.00,,---,0.00,VWS V14.01,2013-07-24 13:09:00,
2013-07-24 09:14:00,54.1,50.3,30.07,SE,124,0.0,0.0,87,0.00,,---,0.00,VWS V14.01,2013-07-24 13:14:00,
2013-07-24 09:19:00,54.1,50.3,30.07,SE,124,0.0,0.0,87,0.00,,---,0.00,VWS V14.01,2013-07-24 13:19:00,
2013-07-24 09:24:00,54.1,50.3,30.07,SE,124,0.0,0.0,87,0.00,,---,0.00,VWS V14.01,2013-07-24 13:24:00,
2013-07-24 09:29:00,54.1,50.3,30.07,SE,124,0.0,0.0,87,0.00,,---,0.00,VWS V14.01,2013-07-24 13:29:00,
2013-07-24 09:30:00,54.2,50.4,30.06,East,90,2.0,3.0,87,0.00,,---,0.00,VWS V14.01,2013-07-24 13:30:00,
2013-07-24 09:34:00,54.1,50.3,30.08,SE,124,0.0,0.0,87,0.00,,---,0.00,VWS V14.01,2013-07-24 13:34:00,
2013-07-24 09:39:00,54.1,50.3,30.08,SE,124,0.0,0.0,87,0.00,,---,0.00,VWS V14.01,2013-07-24 13:39:00,
2013-07-24 09:44:00,54.1,50.3,30.08,SE,124,0.0,0.0,87,0.00,,---,0.00,VWS V14.01,2013-07-24 13:44:00,
2013-07-24 09:49:00,54.1,50.3,30.08,SE,124,0.0,0.0,87,0.00,,---,0.00,VWS V14.01,2013-07-24 13:49:00,
2013-07-24 09:54:00,54.1,50.3,30.08,SE,124,0.0,0.0,87,0.00,,---,0.00,VWS V14.01,2013-07-24 13:54:00,
2013-07-24 09:59:00,54.1,50.3,30.08,SE,124,0.0,0.0,87,0.00,,---,0.00,VWS V14.01,2013-07-24 13:59:00,
2013-07-24 10:00:00,54.1,50.3,30.07,SE,124,0.0,5.0,87,0.00,,---,0.00,VWS V14.01,2013-07-24 14:00:00,
2013-07-24 10:04:00,54.1,50.3,30.08,SE,124,0.0,0.0,87,0.00,,---,0.00,VWS V14.01,2013-07-24 14:04:00,
2013-07-24 10:09:00,54.1,50.3,30.08,SE,124,0.0,0.0,87,0.00,,---,0.00,VWS V14.01,2013-07-24 14:09:00,
2013-07-24 10:14:00,54.1,50.3,30.08,SE,124,0.0,0.0,87,0.00,,---,0.00,VWS V14.01,2013-07-24 14:14:00,
2013-07-24 10:19:00,54.1,50.3,30.08,SE,124,0.0,0.0,87,0.00,,---,0.00,VWS V14.01,2013-07-24 14:19:00,
2013-07-24 10:24:00,54.1,50.3,30.08,SE,124,0.0,0.0,87,0.00,,---,0.00,VWS V14.01,2013-07-24 14:24:00,
2013-07-24 10:29:00,54.1,50.3,30.08,SE,124,0.0,0.0,87,0.00,,---,0.00,VWS V14.01,2013-07-24 14:29:00,
2013-07-24 10:30:00,54.1,50.3,30.08,SE,124,0.0,0.0,87,0.00,,---,0.00,VWS V14.01,2013-07-24 14:30:00,
2013-07-24 10:34:00,54.1,50.3,30.08,SE,124,0.0,0.0,87,0.00,,---,0.00,VWS V14.01,2013-07-24 14:34:00,
2013-07-24 10:39:00,54.1,50.3,30.08,SE,124,0.0,0.0,87,0.00,,---,0.00,VWS V14.01,2013-07-24 14:39:00,
2013-07-24 10:44:00,54.1,50.3,30.08,SE,124,0.0,0.0,87,0.00,,---,0.00,VWS V14.01,2013-07-24 14:44:00,
2013-07-24 10:49:00,54.1,50.3,30.08,SE,124,0.0,0.0,87,0.00,,---,0.00,VWS V14.01,2013-07-24 14:49:00,
2013-07-24 10:54:00,54.1,50.3,30.08,SE,124,0.0,0.0,87,0.00,,---,0.00,VWS V14.01,2013-07-24 14:54:00,
2013-07-24 10:59:00,54.1,50.3,30.08,SE,124,0.0,0.0,87,0.00,,---,0.00,VWS V14.01,2013-07-24 14:59:00,
2013-07-24 11:00:00,54.1,50.3,30.08,SE,124,0.0,0.0,87,0.00,,---,0.00,VWS V14.01,2013-07-24 15:00:00,
2013-07-24 11:04:00,54.1,50.3,30.08,SE,124,0.0,0.0,87,0.00,,---,0.00,VWS V14.01,2013-07-24 15:04:00,
2013-07-24 11:09:00,54.1,50.3,30.08,SE,124,0.0,0.0,87,0.00,,---,0.00,VWS V14.01,2013-07-24 15:09:00,
2013-07-24 11:14:00,65.0,61.0,30.08,WNW,302,6.0,7.0,87,0.00,,---,0.00,VWS V14.01,2013-07-24 15:14:00,
2013-07-24 11:19:00,65.2,46.6,30.08,WNW,287,5.0,8.0,51,0.00,,---,0.00,VWS V14.01,2013-07-24 15:19:00,
2013-07-24 11:24:00,65.3,44.6,30.08,North,357,6.0,8.0,47,0.00,,---,0.00,VWS V14.01,2013-07-24 15:24:00,
2013-07-24 11:29:00,65.5,44.8,30.08,NW,308,1.0,8.0,47,0.00,,---,0.00,VWS V14.01,2013-07-24 15:29:00,
2013-07-24 11:30:00,54.1,50.3,30.08,SE,124,0.0,0.0,87,0.00,,---,0.00,VWS V14.01,2013-07-24 15:30:00,
2013-07-24 11:34:00,65.5,44.8,30.08,NNW,347,6.0,6.0,47,0.00,,---,0.00,VWS V14.01,2013-07-24 15:34:00,
2013-07-24 11:39:00,65.8,45.0,30.08,North,350,6.0,6.0,47,0.00,,---,0.00,VWS V14.01,2013-07-24 15:39:00,
2013-07-24 11:44:00,65.8,45.0,30.08,NNW,335,7.0,10.0,47,0.00,,---,0.00,VWS V14.01,2013-07-24 15:44:00,
2013-07-24 11:49:00,65.8,45.0,30.08,NNW,340,7.0,10.0,47,0.00,,---,0.00,VWS V14.01,2013-07-24 15:49:00,
2013-07-24 11:54:00,66.1,45.3,30.08,NNW,343,2.0,10.0,47,0.00,,---,0.00,VWS V14.01,2013-07-24 15:54:00,
2013-07-24 11:59:00,66.4,45.6,30.08,North,349,6.0,10.0,47,0.00,,---,0.00,VWS V14.01,2013-07-24 15:59:00,
2013-07-24 12:00:00,54.1,50.3,30.08,SE,124,0.0,0.0,87,0.00,,---,0.00,VWS V14.01,2013-07-24 16:00:00,
2013-07-24 12:04:00,66.3,46.0,30.08,NW,318,4.0,8.0,48,0.00,,---,0.00,VWS V14.01,2013-07-24 16:04:00,
2013-07-24 12:09:00,66.4,46.1,30.08,NNW,346,7.0,8.0,48,0.00,,---,0.00,VWS V14.01,2013-07-24 16:09:00,
2013-07-24 12:14:00,66.6,45.2,30.08,NW,306,3.0,11.0,46,0.00,,---,0.00,VWS V14.01,2013-07-24 16:14:00,
2013-07-24 12:19:00,66.6,47.4,30.08,West,265,2.0,11.0,50,0.00,,---,0.00,VWS V14.01,2013-07-24 16:19:00,
2013-07-24 12:25:00,66.8,46.5,30.08,NW,322,5.0,11.0,48,0.00,,---,0.00,VWS V14.01,2013-07-24 16:25:00,
2013-07-24 12:30:00,66.8,46.5,30.08,NW,312,1.0,11.0,48,0.00,,---,0.00,VWS V14.01,2013-07-24 16:30:00,
2013-07-24 12:35:00,66.8,46.5,30.08,NW,319,2.0,7.0,48,0.00,,---,0.00,VWS V14.01,2013-07-24 16:35:00,
2013-07-24 12:40:00,66.8,46.5,30.08,NNW,336,2.0,7.0,48,0.00,,---,0.00,VWS V14.01,2013-07-24 16:40:00,
2013-07-24 12:45:00,66.9,46.6,30.08,North,357,11.0,11.0,48,0.00,,---,0.00,VWS V14.01,2013-07-24 16:45:00,
2013-07-24 12:50:00,66.9,46.6,30.08,North,0,6.0,11.0,48,0.00,,---,0.00,VWS V14.01,2013-07-24 16:50:00,
2013-07-24 12:55:00,67.4,47.0,30.08,NNW,335,8.0,13.0,48,0.00,,---,0.00,VWS V14.01,2013-07-24 16:55:00,
2013-07-24 13:00:00,67.1,47.9,30.08,NNW,330,6.0,13.0,50,0.00,,---,0.00,VWS V14.01,2013-07-24 17:00:00,
2013-07-24 13:05:00,67.1,47.3,30.08,West,272,3.0,7.0,49,0.00,,---,0.00,VWS V14.01,2013-07-24 17:05:00,
2013-07-24 13:10:00,67.3,47.5,30.08,NW,318,6.0,7.0,49,0.00,,---,0.00,VWS V14.01,2013-07-24 17:10:00,
2013-07-24 13:15:00,67.3,47.5,30.08,North,0,4.0,7.0,49,0.00,,---,0.00,VWS V14.01,2013-07-24 17:15:00,
2013-07-24 13:20:00,67.1,49.4,30.08,NW,313,7.0,8.0,53,0.00,,---,0.00,VWS V14.01,2013-07-24 17:20:00,
2013-07-24 13:25:00,67.1,49.4,30.08,NW,309,5.0,8.0,53,0.00,,---,0.00,VWS V14.01,2013-07-24 17:25:00,
2013-07-24 13:30:00,67.4,49.7,30.08,North,349,6.0,8.0,53,0.00,,---,0.00,VWS V14.01,2013-07-24 17:30:00,
2013-07-24 13:35:00,67.8,48.5,30.08,North,350,5.0,7.0,50,0.00,,---,0.00,VWS V14.01,2013-07-24 17:35:00,
2013-07-24 13:40:00,67.9,48.1,30.08,NNW,332,6.0,7.0,49,0.00,,---,0.00,VWS V14.01,2013-07-24 17:40:00,
2013-07-24 13:45:00,67.9,48.6,30.07,NNW,343,6.0,8.0,50,0.00,,---,0.00,VWS V14.01,2013-07-24 17:45:00,
2013-07-24 13:50:00,67.8,48.0,30.07,West,275,4.0,8.0,49,0.00,,---,0.00,VWS V14.01,2013-07-24 17:50:00,
2013-07-24 13:55:00,67.9,48.1,30.07,NW,312,3.0,8.0,49,0.00,,---,0.00,VWS V14.01,2013-07-24 17:55:00,
2013-07-24 14:00:00,67.9,48.1,30.07,WNW,302,3.0,8.0,49,0.00,,---,0.00,VWS V14.01,2013-07-24 18:00:00,
2013-07-24 14:05:00,68.4,48.0,30.07,North,359,5.0,6.0,48,0.00,,---,0.00,VWS V14.01,2013-07-24 18:05:00,
2013-07-24 14:10:00,68.9,48.4,30.07,NNW,333,5.0,7.0,48,0.00,,---,0.00,VWS V14.01,2013-07-24 18:10:00,
2013-07-24 14:15:00,69.1,48.6,30.08,North,353,6.0,7.0,48,0.00,,---,0.00,VWS V14.01,2013-07-24 18:15:00,
2013-07-24 14:20:00,69.3,47.7,30.08,WNW,301,2.0,7.0,46,0.00,,---,0.00,VWS V14.01,2013-07-24 18:20:00,
2013-07-24 14:25:00,69.3,47.7,30.08,NW,308,6.0,7.0,46,0.00,,---,0.00,VWS V14.01,2013-07-24 18:25:00,
2013-07-24 14:30:00,69.3,47.7,30.08,NNW,347,6.0,7.0,46,0.00,,---,0.00,VWS V14.01,2013-07-24 18:30:00,
2013-07-24 14:35:00,69.3,47.7,30.08,WNW,298,3.0,7.0,46,0.00,,---,0.00,VWS V14.01,2013-07-24 18:35:00,
2013-07-24 14:40:00,69.4,47.7,30.08,WSW,257,3.0,7.0,46,0.00,,---,0.00,VWS V14.01,2013-07-24 18:40:00,
2013-07-24 14:42:00,69.4,47.7,30.08,WSW,257,3.0,7.0,46,0.00,,---,0.00,VWS V14.01,2013-07-24 18:42:00,
2013-07-24 14:47:00,69.3,47.7,30.07,NNW,339,3.0,7.0,46,0.00,,---,0.00,VWS V14.01,2013-07-24 18:47:00,
2013-07-24 14:52:00,69.3,47.7,30.07,North,353,6.0,7.0,46,0.00,,---,0.00,VWS V14.01,2013-07-24 18:52:00,
2013-07-24 14:57:00,69.1,46.9,30.07,SSW,213,0.0,7.0,45,0.00,,---,0.00,VWS V14.01,2013-07-24 18:57:00,
2013-07-24 15:00:00,68.4,48.5,30.07,NW,322,3.0,8.0,49,0.00,,---,0.00,VWS V14.01,2013-07-24 19:00:00,
2013-07-24 15:02:00,69.3,48.8,30.07,North,0,5.0,7.0,48,0.00,,---,0.00,VWS V14.01,2013-07-24 19:02:00,
2013-07-24 15:07:00,68.9,46.7,30.07,NNE,24,6.0,9.0,45,0.00,,---,0.00,VWS V14.01,2013-07-24 19:07:00,
2013-07-24 15:12:00,68.4,46.2,30.07,ESE,116,5.0,9.0,45,0.00,,---,0.00,VWS V14.01,2013-07-24 19:12:00,
2013-07-24 15:17:00,68.4,46.2,30.07,WNW,284,0.0,9.0,45,0.00,,---,0.00,VWS V14.01,2013-07-24 19:17:00,
2013-07-24 15:22:00,69.4,48.9,30.07,WNW,287,5.0,9.0,48,0.00,,---,0.00,VWS V14.01,2013-07-24 19:22:00,
2013-07-24 15:27:00,69.9,48.2,30.07,WNW,291,2.0,9.0,46,0.00,,---,0.00,VWS V14.01,2013-07-24 19:27:00,
2013-07-24 15:30:00,69.3,47.7,30.08,NNW,328,6.0,7.0,46,0.00,,---,0.00,VWS V14.01,2013-07-24 19:30:00,
2013-07-24 15:32:00,70.1,48.4,30.07,NNW,335,7.0,7.0,46,0.00,,---,0.00,VWS V14.01,2013-07-24 19:32:00,
2013-07-24 15:37:00,70.4,48.7,30.07,NW,316,5.0,8.0,46,0.00,,---,0.00,VWS V14.01,2013-07-24 19:37:00,
2013-07-24 15:42:00,69.8,48.1,30.07,NW,323,3.0,8.0,46,0.00,,---,0.00,VWS V14.01,2013-07-24 19:42:00,
2013-07-24 15:47:00,69.6,47.9,30.07,WNW,299,1.0,8.0,46,0.00,,---,0.00,VWS V14.01,2013-07-24 19:47:00,
2013-07-24 15:52:00,69.8,49.8,30.07,NW,308,4.0,8.0,49,0.00,,---,0.00,VWS V14.01,2013-07-24 19:52:00,
2013-07-24 15:57:00,69.8,48.1,30.07,NW,313,1.0,8.0,46,0.00,,---,0.00,VWS V14.01,2013-07-24 19:57:00,
2013-07-24 16:00:00,69.3,48.8,30.07,NNW,342,6.0,7.0,48,0.00,,---,0.00,VWS V14.01,2013-07-24 20:00:00,
2013-07-24 16:02:00,69.6,48.5,30.06,NNW,330,2.0,5.0,47,0.00,,---,0.00,VWS V14.01,2013-07-24 20:02:00,
2013-07-24 16:07:00,69.8,49.2,30.06,West,270,0.0,7.0,48,0.00,,---,0.00,VWS V14.01,2013-07-24 20:07:00,
2013-07-24 16:12:00,69.9,48.8,30.06,NW,325,5.0,7.0,47,0.00,,---,0.00,VWS V14.01,2013-07-24 20:12:00,
2013-07-24 16:17:00,70.4,49.2,30.06,NW,312,4.0,7.0,47,0.00,,---,0.00,VWS V14.01,2013-07-24 20:17:00,
2013-07-24 16:22:00,70.4,49.2,30.06,NNW,346,3.0,7.0,47,0.00,,---,0.00,VWS V14.01,2013-07-24 20:22:00,
2013-07-24 16:27:00,70.3,49.1,30.06,NW,319,4.0,7.0,47,0.00,,---,0.00,VWS V14.01,2013-07-24 20:27:00,
2013-07-24 16:30:00,70.1,48.4,30.07,NNW,343,6.0,9.0,46,0.00,,---,0.00,VWS V14.01,2013-07-24 20:30:00,
2013-07-24 16:32:00,70.4,49.2,30.06,NNW,329,0.0,5.0,47,0.00,,---,0.00,VWS V14.01,2013-07-24 20:32:00,
2013-07-24 16:37:00,71.3,48.9,30.06,NW,312,7.0,7.0,45,0.00,,---,0.00,VWS V14.01,2013-07-24 20:37:00,
2013-07-24 16:42:00,70.9,48.5,30.06,NW,304,3.0,7.0,45,0.00,,---,0.00,VWS V14.01,2013-07-24 20:42:00,
2013-07-24 16:47:00,70.4,48.1,30.06,NW,305,1.0,7.0,45,0.00,,---,0.00,VWS V14.01,2013-07-24 20:47:00,
2013-07-24 16:52:00,70.4,48.1,30.06,NNW,335,3.0,7.0,45,0.00,,---,0.00,VWS V14.01,2013-07-24 20:52:00,
2013-07-24 16:57:00,70.1,47.8,30.06,NNW,336,6.0,7.0,45,0.00,,---,0.00,VWS V14.01,2013-07-24 20:57:00,
2013-07-24 17:00:00,69.8,49.8,30.06,NNW,347,5.0,8.0,49,0.00,,---,0.00,VWS V14.01,2013-07-24 21:00:00,
2013-07-24 17:02:00,69.1,46.9,30.06,NW,325,1.0,1.0,45,0.00,,---,0.00,VWS V14.01,2013-07-24 21:02:00,
2013-07-24 17:07:00,69.1,46.9,30.06,NW,325,1.0,1.0,45,0.00,,---,0.00,VWS V14.01,2013-07-24 21:07:00,
2013-07-24 17:12:00,69.1,46.9,30.06,NW,311,5.0,5.0,45,0.00,,---,0.00,VWS V14.01,2013-07-24 21:12:00,
2013-07-24 17:17:00,69.1,46.9,30.06,NW,311,5.0,5.0,45,0.00,,---,0.00,VWS V14.01,2013-07-24 21:17:00,
2013-07-24 17:22:00,69.4,47.2,30.06,NW,316,1.0,8.0,45,0.00,,---,0.00,VWS V14.01,2013-07-24 21:22:00,
2013-07-24 17:27:00,68.4,51.1,30.06,NW,326,3.0,8.0,54,0.00,,---,0.00,VWS V14.01,2013-07-24 21:27:00,
2013-07-24 17:30:00,70.3,49.1,30.06,NW,320,2.0,7.0,47,0.00,,---,0.00,VWS V14.01,2013-07-24 21:30:00,
2013-07-24 17:32:00,68.8,51.5,30.05,WNW,295,1.0,3.0,54,0.00,,---,0.00,VWS V14.01,2013-07-24 21:32:00,
2013-07-24 17:37:00,68.9,52.1,30.05,NNW,340,2.0,11.0,55,0.00,,---,0.00,VWS V14.01,2013-07-24 21:37:00,
2013-07-24 17:42:00,69.3,52.5,30.05,NW,315,2.0,11.0,55,0.00,,---,0.00,VWS V14.01,2013-07-24 21:42:00,
2013-07-24 17:47:00,69.4,52.5,30.05,WNW,295,5.0,11.0,55,0.00,,---,0.00,VWS V14.01,2013-07-24 21:47:00,
2013-07-24 17:52:00,69.4,52.5,30.05,NW,326,0.0,11.0,55,0.00,,---,0.00,VWS V14.01,2013-07-24 21:52:00,
2013-07-24 17:57:00,69.4,52.5,30.05,SW,219,1.0,11.0,55,0.00,,---,0.00,VWS V14.01,2013-07-24 21:57:00,
2013-07-24 18:00:00,69.1,46.9,30.06,NW,325,0.0,7.0,45,0.00,,---,0.00,VWS V14.01,2013-07-24 22:00:00,
2013-07-24 18:02:00,69.4,52.5,30.05,WNW,292,2.0,2.0,55,0.00,,---,0.00,VWS V14.01,2013-07-24 22:02:00,
2013-07-24 18:07:00,70.4,53.5,30.05,WNW,289,1.0,2.0,55,0.00,,---,0.00,VWS V14.01,2013-07-24 22:07:00,
2013-07-24 18:12:00,70.4,52.0,30.05,ESE,119,1.0,2.0,52,0.00,,---,0.00,VWS V14.01,2013-07-24 22:12:00,
2013-07-24 18:17:00,70.4,52.0,30.05,North,350,3.0,3.0,52,0.00,,---,0.00,VWS V14.01,2013-07-24 22:17:00,
2013-07-24 18:22:00,70.4,52.0,30.05,NNE,18,1.0,3.0,52,0.00,,---,0.00,VWS V14.01,2013-07-24 22:22:00,
2013-07-24 18:27:00,69.4,50.5,30.05,WNW,287,0.0,3.0,51,0.00,,---,0.00,VWS V14.01,2013-07-24 22:27:00,
2013-07-24 18:30:00,68.4,51.1,30.05,WNW,288,1.0,8.0,54,0.00,,---,0.00,VWS V14.01,2013-07-24 22:30:00,
2013-07-24 18:32:00,69.3,50.9,30.05,WNW,287,0.0,0.0,52,0.00,,---,0.00,VWS V14.01,2013-07-24 22:32:00,
2013-07-24 18:37:00,69.8,50.9,30.05,WNW,291,2.0,2.0,51,0.00,,---,0.00,VWS V14.01,2013-07-24 22:37:00,
2013-07-24 18:42:00,70.1,51.2,30.05,WNW,291,2.0,3.0,51,0.00,,---,0.00,VWS V14.01,2013-07-24 22:42:00,
2013-07-24 18:47:00,70.1,51.2,30.04,SSW,193,0.0,5.0,51,0.00,,---,0.00,VWS V14.01,2013-07-24 22:47:00,
2013-07-24 18:52:00,70.3,51.9,30.04,NW,319,2.0,5.0,52,0.00,,---,0.00,VWS V14.01,2013-07-24 22:52:00,
2013-07-24 18:57:00,70.1,52.2,30.04,WNW,302,2.0,5.0,53,0.00,,---,0.00,VWS V14.01,2013-07-24 22:57:00,
2013-07-24 19:00:00,69.4,52.5,30.05,WSW,237,0.0,11.0,55,0.00,,---,0.00,VWS V14.01,2013-07-24 23:00:00,
2013-07-24 19:03:00,70.1,51.7,30.05,WNW,302,2.0,2.0,52,0.00,,---,0.00,VWS V14.01,2013-07-24 23:03:00,
2013-07-24 19:08:00,70.1,52.7,30.05,NW,316,1.0,3.0,54,0.00,,---,0.00,VWS V14.01,2013-07-24 23:08:00,
2013-07-24 19:13:00,70.3,52.9,30.05,NNW,328,1.0,5.0,54,0.00,,---,0.00,VWS V14.01,2013-07-24 23:13:00,
2013-07-24 19:18:00,70.4,52.0,30.04,NW,313,1.0,5.0,52,0.00,,---,0.00,VWS V14.01,2013-07-24 23:18:00,
2013-07-24 19:23:00,70.3,52.9,30.04,NW,306,0.0,5.0,54,0.00,,---,0.00,VWS V14.01,2013-07-24 23:23:00,
2013-07-24 19:28:00,70.3,52.4,30.04,NNW,330,3.0,5.0,53,0.00,,---,0.00,VWS V14.01,2013-07-24 23:28:00,
2013-07-24 19:30:00,69.4,50.5,30.05,WNW,287,0.0,3.0,51,0.00,,---,0.00,VWS V14.01,2013-07-24 23:30:00,
2013-07-24 19:33:00,70.3,52.4,30.04,West,267,0.0,0.0,53,0.00,,---,0.00,VWS V14.01,2013-07-24 23:33:00,
2013-07-24 19:38:00,70.3,52.4,30.04,West,265,1.0,5.0,53,0.00,,---,0.00,VWS V14.01,2013-07-24 23:38:00,
2013-07-24 19:43:00,69.6,52.7,30.04,SSW,199,2.0,5.0,55,0.00,,---,0.00,VWS V14.01,2013-07-24 23:43:00,
2013-07-24 19:48:00,68.8,52.0,30.04,SSW,205,1.0,5.0,55,0.00,,---,0.00,VWS V14.01,2013-07-24 23:48:00,
2013-07-24 19:53:00,68.3,51.5,30.04,SW,236,1.0,5.0,55,0.00,,---,0.00,VWS V14.01,2013-07-24 23:53:00,
2013-07-24 19:58:00,67.8,52.0,30.04,SSE,161,0.0,5.0,57,0.00,,---,0.00,VWS V14.01,2013-07-24 23:58:00,
2013-07-24 20:00:00,70.1,51.7,30.05,WNW,302,2.0,5.0,52,0.00,,---,0.00,VWS V14.01,2013-07-25 00:00:00,
2013-07-24 20:03:00,67.4,51.7,30.05,NNE,30,0.0,1.0,57,0.00,,---,0.00,VWS V14.01,2013-07-25 00:03:00,
2013-07-24 20:08:00,67.1,51.4,30.05,West,278,0.0,1.0,57,0.00,,---,0.00,VWS V14.01,2013-07-25 00:08:00,
2013-07-24 20:13:00,66.8,51.1,30.05,SSW,209,0.0,1.0,57,0.00,,---,0.00,VWS V14.01,2013-07-25 00:13:00,
2013-07-24 20:18:00,66.4,50.7,30.04,WNW,292,0.0,2.0,57,0.00,,---,0.00,VWS V14.01,2013-07-25 00:18:00,
2013-07-24 20:23:00,66.3,50.6,30.04,North,353,0.0,2.0,57,0.00,,---,0.00,VWS V14.01,2013-07-25 00:23:00,
2013-07-24 20:28:00,66.0,50.8,30.04,NE,42,0.0,3.0,58,0.00,,---,0.00,VWS V14.01,2013-07-25 00:28:00,
2013-07-24 20:30:00,70.3,52.4,30.04,West,267,0.0,5.0,53,0.00,,---,0.00,VWS V14.01,2013-07-25 00:30:00,
2013-07-24 20:33:00,65.6,50.4,30.04,NE,42,0.0,2.0,58,0.00,,---,0.00,VWS V14.01,2013-07-25 00:33:00,
2013-07-24 20:38:00,65.5,50.3,30.04,West,281,0.0,2.0,58,0.00,,---,0.00,VWS V14.01,2013-07-25 00:38:00,
2013-07-24 20:43:00,65.2,50.1,30.04,WNW,287,0.0,2.0,58,0.00,,---,0.00,VWS V14.01,2013-07-25 00:43:00,
2013-07-24 20:48:00,64.8,50.6,30.04,WNW,287,0.0,2.0,60,0.00,,---,0.00,VWS V14.01,2013-07-25 00:48:00,
2013-07-24 20:53:00,64.5,51.2,30.04,WNW,287,0.0,2.0,62,0.00,,---,0.00,VWS V14.01,2013-07-25 00:53:00,
2013-07-24 20:58:00,64.2,51.4,30.04,WNW,287,0.0,2.0,63,0.00,,---,0.00,VWS V14.01,2013-07-25 00:58:00,
2013-07-24 21:00:00,67.6,51.8,30.05,ESE,110,0.0,5.0,57,0.00,,---,0.00,VWS V14.01,2013-07-25 01:00:00,
2013-07-24 21:03:00,63.7,50.9,30.05,WNW,287,0.0,0.0,63,0.00,,---,0.00,VWS V14.01,2013-07-25 01:03:00,
2013-07-24 21:08:00,63.2,50.4,30.05,WNW,287,0.0,0.0,63,0.00,,---,0.00,VWS V14.01,2013-07-25 01:08:00,
2013-07-24 21:13:00,63.1,51.6,30.05,WNW,287,0.0,0.0,66,0.00,,---,0.00,VWS V14.01,2013-07-25 01:13:00,
2013-07-24 21:18:00,62.6,51.9,30.05,WNW,287,0.0,0.0,68,0.00,,---,0.00,VWS V14.01,2013-07-25 01:18:00,
2013-07-24 21:23:00,62.6,51.9,30.05,WNW,287,0.0,0.0,68,0.00,,---,0.00,VWS V14.01,2013-07-25 01:23:00,
2013-07-24 21:28:00,61.6,51.0,30.05,WNW,287,0.0,0.0,68,0.00,,---,0.00,VWS V14.01,2013-07-25 01:28:00,
2013-07-24 21:30:00,65.8,50.6,30.04,NE,42,0.0,3.0,58,0.00,,---,0.00,VWS V14.01,2013-07-25 01:30:00,
2013-07-24 21:33:00,60.9,51.5,30.06,WNW,287,0.0,0.0,71,0.00,,---,0.00,VWS V14.01,2013-07-25 01:33:00,
2013-07-24 21:38:00,60.5,50.7,30.06,WNW,287,1.0,1.0,70,0.00,,---,0.00,VWS V14.01,2013-07-25 01:38:00,
2013-07-24 21:44:00,60.1,50.3,30.06,WNW,287,0.0,1.0,70,0.00,,---,0.00,VWS V14.01,2013-07-25 01:44:00,
2013-07-24 21:49:00,59.9,51.2,30.06,WNW,287,0.0,1.0,73,0.00,,---,0.00,VWS V14.01,2013-07-25 01:49:00,
2013-07-24 21:54:00,59.6,51.0,30.06,WNW,287,0.0,1.0,73,0.00,,---,0.00,VWS V14.01,2013-07-25 01:54:00,
2013-07-24 21:59:00,59.3,51.4,30.06,WNW,287,0.0,1.0,75,0.00,,---,0.00,VWS V14.01,2013-07-25 01:59:00,
2013-07-24 22:00:00,64.0,51.2,30.05,WNW,287,0.0,2.0,63,0.00,,---,0.00,VWS V14.01,2013-07-25 02:00:00,
2013-07-24 22:04:00,58.9,51.4,30.06,WNW,287,0.0,2.0,76,0.00,,---,0.00,VWS V14.01,2013-07-25 02:04:00,
2013-07-24 22:09:00,58.9,51.0,30.06,WNW,287,0.0,2.0,75,0.00,,---,0.00,VWS V14.01,2013-07-25 02:09:00,
2013-07-24 22:14:00,58.4,50.9,30.06,WNW,287,0.0,2.0,76,0.00,,---,0.00,VWS V14.01,2013-07-25 02:14:00,
2013-07-24 22:19:00,58.3,51.1,30.06,WNW,287,0.0,2.0,77,0.00,,---,0.00,VWS V14.01,2013-07-25 02:19:00,
2013-07-24 22:24:00,58.1,51.3,30.06,WNW,287,0.0,2.0,78,0.00,,---,0.00,VWS V14.01,2013-07-25 02:24:00,
2013-07-24 22:29:00,57.8,51.0,30.06,WNW,287,0.0,2.0,78,0.00,,---,0.00,VWS V14.01,2013-07-25 02:29:00,
2013-07-24 22:30:00,61.3,50.7,30.06,WNW,287,0.0,0.0,68,0.00,,---,0.00,VWS V14.01,2013-07-25 02:30:00,
2013-07-24 22:34:00,57.6,50.8,30.06,WNW,287,0.0,0.0,78,0.00,,---,0.00,VWS V14.01,2013-07-25 02:34:00,
2013-07-24 22:39:00,57.5,51.0,30.06,WNW,287,1.0,2.0,79,0.00,,---,0.00,VWS V14.01,2013-07-25 02:39:00,
2013-07-24 22:44:00,57.2,51.1,30.06,WNW,285,0.0,2.0,80,0.00,,---,0.00,VWS V14.01,2013-07-25 02:44:00,
2013-07-24 22:49:00,57.0,51.6,30.06,WNW,285,0.0,2.0,82,0.00,,---,0.00,VWS V14.01,2013-07-25 02:49:00,
2013-07-24 22:54:00,56.7,50.6,30.06,WNW,285,0.0,2.0,80,0.00,,---,0.00,VWS V14.01,2013-07-25 02:54:00,
2013-07-24 22:59:00,56.5,50.8,30.06,WNW,285,0.0,2.0,81,0.00,,---,0.00,VWS V14.01,2013-07-25 02:59:00,
2013-07-24 23:00:00,59.2,51.3,30.06,WNW,287,0.0,1.0,75,0.00,,---,0.00,VWS V14.01,2013-07-25 03:00:00,
2013-07-24 23:04:00,56.3,50.5,30.06,WNW,285,0.0,0.0,81,0.00,,---,0.00,VWS V14.01,2013-07-25 03:04:00,
2013-07-24 23:09:00,56.2,51.1,30.06,WNW,285,0.0,0.0,83,0.00,,---,0.00,VWS V14.01,2013-07-25 03:09:00,
2013-07-24 23:14:00,56.0,51.2,30.06,WNW,285,0.0,0.0,84,0.00,,---,0.00,VWS V14.01,2013-07-25 03:14:00,
2013-07-24 23:19:00,55.7,51.6,30.06,WNW,285,0.0,0.0,86,0.00,,---,0.00,VWS V14.01,2013-07-25 03:19:00,
2013-07-24 23:24:00,55.7,51.9,30.06,WNW,285,0.0,1.0,87,0.00,,---,0.00,VWS V14.01,2013-07-25 03:24:00,
2013-07-24 23:29:00,55.6,52.1,30.06,WNW,285,0.0,1.0,88,0.00,,---,0.00,VWS V14.01,2013-07-25 03:29:00,
2013-07-24 23:30:00,57.6,50.8,30.06,WNW,287,0.0,2.0,78,0.00,,---,0.00,VWS V14.01,2013-07-25 03:30:00,
2013-07-24 23:34:00,55.4,52.2,30.05,WNW,285,0.0,0.0,89,0.00,,---,0.00,VWS V14.01,2013-07-25 03:34:00,
2013-07-24 23:39:00,55.4,52.8,30.05,WNW,285,0.0,0.0,91,0.00,,---,0.00,VWS V14.01,2013-07-25 03:39:00,
2013-07-24 23:44:00,55.4,52.8,30.05,WNW,285,0.0,1.0,91,0.00,,---,0.00,VWS V14.01,2013-07-25 03:44:00,
2013-07-24 23:49:00,55.1,52.2,30.05,WNW,285,0.0,1.0,90,0.00,,---,0.00,VWS V14.01,2013-07-25 03:49:00,
2013-07-24 23:55:00,54.5,51.0,30.05,WNW,285,0.0,1.0,88,0.00,,---,0.00,VWS V14.01,2013-07-25 03:55:00,